Time;durP1;ratioP1;P1;durP2;ratioP2;P2;SDS_P1;SDS_P2;PMS_P1;PMS_P2;Temp;Humidity;BMP_temperature;BMP_pressure;BME280_temperature;BME280_humidity;BME280_pressure;Samples;Min_cycle;Max_cycle;Signal;HPM_P1;HPM_P2
2022/10/02 07:36:44;;;;;;;24.25;5.85;;;12.10;99.90;;;;;;5070587;28;20573;-73
2022/10/02 07:39:27;;;;;;;22.02;5.65;;;12.00;99.90;;;;;;5069499;28;20214;-74
2022/10/02 07:42:21;;;;;;;15.73;4.72;;;12.10;99.90;;;;;;5070088;28;20177;-74
2022/10/02 07:44:56;;;;;;;14.57;5.28;;;12.10;99.90;;;;;;5070638;28;20174;-74
2022/10/02 07:47:43;;;;;;;17.48;5.45;;;12.10;99.90;;;;;;5070233;28;20178;-74
2022/10/02 07:50:25;;;;;;;17.85;5.35;;;12.10;99.90;;;;;;5070598;28;20173;-74
2022/10/02 07:52:56;;;;;;;17.92;5.03;;;12.20;99.90;;;;;;5069952;28;20271;-74
2022/10/02 07:55:24;;;;;;;14.07;4.78;;;12.30;99.90;;;;;;5070184;28;20197;-74
2022/10/02 07:58:23;;;;;;;21.88;6.15;;;12.30;99.90;;;;;;5070664;28;20189;-78
2022/10/02 08:00:55;;;;;;;15.85;4.85;;;12.30;99.90;;;;;;5070905;28;20161;-74
2022/10/02 08:03:58;;;;;;;15.82;5.50;;;12.30;99.90;;;;;;5070192;28;20215;-74
2022/10/02 08:06:24;;;;;;;17.13;5.35;;;12.20;99.90;;;;;;5069966;28;20219;-74
2022/10/02 08:09:05;;;;;;;16.52;4.95;;;12.20;99.90;;;;;;5068830;28;20201;-74
2022/10/02 08:11:37;;;;;;;17.92;5.07;;;12.30;99.90;;;;;;5069892;28;20169;-73
2022/10/02 08:14:25;;;;;;;12.38;4.70;;;12.30;99.90;;;;;;5069897;28;20173;-74
2022/10/02 08:16:53;;;;;;;14.13;4.78;;;12.30;99.90;;;;;;5070037;28;20180;-73
2022/10/02 08:19:31;;;;;;;16.23;5.05;;;12.30;99.90;;;;;;5068705;28;20205;-73
2022/10/02 08:22:00;;;;;;;14.68;5.00;;;12.30;99.90;;;;;;5069175;28;20697;-73
2022/10/02 08:24:31;;;;;;;16.55;4.80;;;12.30;99.90;;;;;;5070153;28;20197;-74
2022/10/02 08:27:21;;;;;;;15.50;6.93;;;12.30;99.90;;;;;;5068751;28;20169;-73
2022/10/02 08:30:02;;;;;;;14.35;6.78;;;12.30;99.90;;;;;;5069866;28;20256;-73
2022/10/02 08:32:32;;;;;;;13.13;5.55;;;12.30;99.90;;;;;;5070097;28;20180;-73
2022/10/02 08:34:59;;;;;;;17.17;5.88;;;12.40;99.90;;;;;;5068287;28;20262;-74
2022/10/02 08:37:47;;;;;;;15.15;5.78;;;12.40;99.90;;;;;;5068531;28;20612;-73
2022/10/02 08:40:38;;;;;;;12.95;5.57;;;12.50;99.90;;;;;;5069582;28;20165;-73
2022/10/02 08:43:52;;;;;;;14.68;5.70;;;12.50;99.90;;;;;;5050369;28;20185;-73
2022/10/02 08:46:39;;;;;;;15.02;5.47;;;12.60;99.90;;;;;;5061051;28;20182;-73
2022/10/02 08:49:35;;;;;;;13.20;6.15;;;12.60;99.90;;;;;;5054963;28;20208;-73
2022/10/02 08:52:27;;;;;;;11.30;5.00;;;12.60;99.90;;;;;;5056156;28;20197;-73
2022/10/02 08:58:37;;;;;;;12.82;5.85;;;12.60;99.90;;;;;;5056285;28;20197;-73
2022/10/02 09:01:42;;;;;;;11.70;4.88;;;12.70;99.90;;;;;;5054781;28;20178;-74
2022/10/02 09:04:45;;;;;;;11.32;4.80;;;12.70;99.90;;;;;;5055771;28;20240;-74
2022/10/02 09:07:20;;;;;;;11.70;4.60;;;12.90;99.90;;;;;;5054573;28;20178;-74
2022/10/02 09:10:11;;;;;;;16.70;4.95;;;13.10;99.90;;;;;;5054543;28;20181;-74
2022/10/02 09:12:58;;;;;;;10.57;4.32;;;13.30;99.90;;;;;;5054480;28;20185;-74
2022/10/02 09:19:12;;;;;;;8.35;3.60;;;13.60;99.90;;;;;;5055807;28;20278;-74
2022/10/02 09:21:43;;;;;;;12.40;3.40;;;13.70;99.90;;;;;;5055263;28;20175;-74
2022/10/02 09:24:42;;;;;;;7.85;2.88;;;13.80;99.90;;;;;;5055547;28;20190;-75
2022/10/02 09:27:10;;;;;;;8.45;3.25;;;13.80;99.90;;;;;;5054343;28;20249;-75
2022/10/02 09:29:55;;;;;;;8.63;3.70;;;13.80;99.90;;;;;;5054522;28;20194;-75
2022/10/02 09:33:15;;;;;;;11.93;3.92;;;13.80;99.90;;;;;;5054420;28;20259;-74
2022/10/02 09:39:27;;;;;;;8.30;3.25;;;13.80;99.90;;;;;;5013878;28;20213;-73
2022/10/02 09:42:07;;;;;;;5.50;3.03;;;13.80;99.90;;;;;;5054239;28;20181;-74
2022/10/02 09:44:59;;;;;;;5.22;2.75;;;13.80;99.90;;;;;;5053833;28;20205;-74
2022/10/02 09:48:16;;;;;;;6.70;2.80;;;13.90;99.90;;;;;;5053850;28;20652;-74
2022/10/02 09:51:06;;;;;;;8.23;2.53;;;14.00;99.90;;;;;;5055847;28;20185;-75
2022/10/02 09:53:38;;;;;;;5.97;2.80;;;14.30;99.90;;;;;;5053903;28;20253;-74
2022/10/02 09:56:16;;;;;;;6.47;2.70;;;14.50;99.90;;;;;;5053813;28;20200;-73
2022/10/02 09:59:07;;;;;;;6.43;2.42;;;14.60;99.90;;;;;;5052983;28;20198;-73
2022/10/02 10:02:10;;;;;;;5.53;2.38;;;14.70;99.90;;;;;;5054128;28;20177;-74
2022/10/02 10:04:57;;;;;;;5.47;2.25;;;14.60;99.90;;;;;;5054196;28;20254;-76
2022/10/02 10:07:44;;;;;;;6.72;2.20;;;14.60;99.90;;;;;;5054030;28;20166;-74
2022/10/02 10:10:33;;;;;;;3.78;2.10;;;14.60;99.90;;;;;;5054253;28;20166;-74
2022/10/02 10:12:59;;;;;;;6.95;4.30;;;14.60;99.90;;;;;;5055498;28;20158;-74
2022/10/02 10:16:13;;;;;;;6.72;3.65;;;14.60;99.90;;;;;;5054339;28;20178;-74
2022/10/02 10:19:21;;;;;;;6.43;3.20;;;14.40;99.90;;;;;;5055030;28;20202;-74
2022/10/02 10:22:25;;;;;;;5.88;2.65;;;14.30;99.90;;;;;;5053990;28;20253;-74
2022/10/02 10:24:59;;;;;;;8.55;5.10;;;14.20;99.90;;;;;;5054342;28;20218;-74
2022/10/02 10:27:47;;;;;;;8.45;6.05;;;14.10;99.90;;;;;;5053602;28;20656;-74
2022/10/02 10:30:51;;;;;;;5.95;4.40;;;14.10;99.90;;;;;;5053986;28;20189;-74
2022/10/02 10:40:24;;;;;;;9.00;4.90;;;14.30;99.90;;;;;;5054900;28;20169;-74
2022/10/02 10:43:31;;;;;;;8.70;5.53;;;14.20;99.90;;;;;;5054700;28;20551;-73
2022/10/02 10:46:14;;;;;;;5.18;3.20;;;14.10;99.90;;;;;;5055060;28;20221;-74
2022/10/02 10:49:01;;;;;;;6.47;3.67;;;14.00;99.90;;;;;;5053131;28;20198;-73
2022/10/02 10:51:58;;;;;;;5.80;3.10;;;13.90;99.90;;;;;;5053675;28;20181;-73
2022/10/02 10:54:39;;;;;;;4.55;2.40;;;13.90;99.90;;;;;;5053685;28;20232;-73
2022/10/02 10:57:28;;;;;;;5.78;3.55;;;14.00;99.90;;;;;;5053432;28;20694;-74
2022/10/02 11:00:12;;;;;;;2.70;2.05;;;14.10;99.90;;;;;;5053281;28;20185;-73
2022/10/02 11:03:15;;;;;;;2.33;2.00;;;14.20;99.90;;;;;;5053872;28;20207;-73
2022/10/02 11:05:56;;;;;;;4.72;4.18;;;14.30;99.90;;;;;;5053384;28;20205;-72
2022/10/02 11:08:42;;;;;;;2.00;1.80;;;14.30;99.90;;;;;;5053281;28;20284;-72
2022/10/02 11:11:35;;;;;;;2.33;1.98;;;14.30;99.90;;;;;;5053646;28;20182;-73
2022/10/02 11:17:39;;;;;;;2.85;1.52;;;14.30;99.90;;;;;;5053930;28;20158;-73
2022/10/02 11:20:29;;;;;;;1.63;1.20;;;14.30;99.90;;;;;;5053211;28;20194;-73
2022/10/02 11:23:22;;;;;;;3.30;1.33;;;14.30;99.90;;;;;;5052262;28;20653;-73
2022/10/02 11:26:05;;;;;;;2.15;1.45;;;14.30;99.90;;;;;;5052248;28;20293;-74
2022/10/02 11:29:00;;;;;;;1.65;1.27;;;14.30;99.90;;;;;;5052795;28;20236;-73
2022/10/02 11:31:45;;;;;;;3.28;1.15;;;14.30;99.90;;;;;;5052243;28;20190;-74
2022/10/02 11:34:44;;;;;;;1.27;1.10;;;14.30;99.90;;;;;;5053751;28;20528;-73
2022/10/02 11:37:24;;;;;;;1.88;1.50;;;14.30;99.90;;;;;;5052624;28;20198;-74
2022/10/02 11:40:11;;;;;;;2.72;1.80;;;14.30;99.90;;;;;;5053679;28;20231;-74
2022/10/02 11:43:03;;;;;;;1.05;1.05;;;14.40;99.90;;;;;;5053571;28;20184;-73
2022/10/02 11:45:59;;;;;;;1.38;1.27;;;14.50;99.90;;;;;;5053835;28;20186;-73
2022/10/02 11:49:01;;;;;;;2.20;1.40;;;14.70;99.90;;;;;;5052779;28;20205;-74
2022/10/02 11:52:07;;;;;;;2.38;1.40;;;14.80;99.90;;;;;;5053863;28;20158;-74
2022/10/02 11:54:44;;;;;;;2.00;1.60;;;14.90;99.90;;;;;;5052327;28;20174;-74
2022/10/02 11:57:39;;;;;;;2.60;1.50;;;14.90;99.90;;;;;;5052017;28;20201;-73
2022/10/02 12:00:50;;;;;;;1.98;1.50;;;14.90;99.90;;;;;;5043236;28;20726;-73
2022/10/02 12:03:25;;;;;;;1.70;1.60;;;15.00;99.90;;;;;;5051723;28;20206;-73
2022/10/02 12:06:09;;;;;;;3.63;1.40;;;15.00;99.90;;;;;;5052194;28;20236;-74
2022/10/02 12:09:01;;;;;;;1.83;1.40;;;15.20;99.90;;;;;;5052983;28;20190;-74
2022/10/02 12:15:10;;;;;;;1.85;1.45;;;15.50;99.90;;;;;;5053330;28;20162;-74
2022/10/02 12:18:16;;;;;;;3.13;1.30;;;15.60;99.90;;;;;;5052046;28;20194;-74
2022/10/02 12:27:41;;;;;;;4.03;1.40;;;16.10;99.90;;;;;;5056753;28;20158;-74
2022/10/02 12:33:51;;;;;;;2.90;1.58;;;16.50;99.90;;;;;;5056822;28;20161;-73
2022/10/02 12:36:57;;;;;;;3.03;2.67;;;16.70;99.90;;;;;;5055169;28;20244;-73
2022/10/02 12:43:01;;;;;;;10.18;7.07;;;16.90;99.90;;;;;;5056541;28;20208;-73
2022/10/02 12:49:44;;;;;;;7.13;3.88;;;16.60;99.90;;;;;;5056095;28;20563;-73
2022/10/02 12:53:04;;;;;;;6.40;3.03;;;16.30;99.90;;;;;;5017675;28;20259;-73
2022/10/02 12:55:54;;;;;;;14.77;13.35;;;16.20;99.90;;;;;;5017444;28;20171;-73
2022/10/02 12:58:47;;;;;;;14.73;13.32;;;16.00;99.90;;;;;;5055778;28;20294;-73
2022/10/02 13:01:12;;;;;;;10.40;9.30;;;15.80;99.90;;;;;;5056041;28;20652;-73
2022/10/02 13:04:23;;;;;;;5.82;5.22;;;15.70;99.90;;;;;;5056197;28;20174;-73
2022/10/02 13:07:44;;;;;;;5.72;4.78;;;15.70;99.90;;;;;;5054638;28;20221;-74
2022/10/02 13:10:22;;;;;;;3.78;3.42;;;15.60;99.90;;;;;;5056269;28;20170;-74
2022/10/02 13:16:41;;;;;;;4.47;3.20;;;15.70;99.90;;;;;;5045896;28;20177;-74
2022/10/02 13:19:16;;;;;;;2.53;2.20;;;15.80;99.90;;;;;;5053157;28;20336;-74
2022/10/02 13:25:23;;;;;;;3.83;2.22;;;16.00;99.90;;;;;;5035794;28;20194;-74
2022/10/02 13:28:35;;;;;;;4.22;2.58;;;16.10;99.90;;;;;;5041422;28;20748;-74
2022/10/02 13:31:57;;;;;;;5.15;2.38;;;16.00;99.90;;;;;;5054907;28;20171;-74
2022/10/02 13:34:38;;;;;;;2.55;1.83;;;16.00;99.90;;;;;;5035416;28;20186;-74
2022/10/02 13:40:32;;;;;;;2.47;1.83;;;16.00;99.90;;;;;;5035442;28;20612;-74
2022/10/02 13:43:41;;;;;;;3.58;1.92;;;16.00;99.90;;;;;;5034211;28;20179;-74
2022/10/02 13:46:30;;;;;;;1.88;1.67;;;16.00;99.90;;;;;;5035009;28;20368;-74
2022/10/02 13:49:18;;;;;;;2.00;1.58;;;16.10;99.90;;;;;;5035005;28;20198;-74
2022/10/02 13:55:43;;;;;;;2.95;1.95;;;16.10;99.90;;;;;;5035396;28;20692;-74
2022/10/02 13:58:56;;;;;;;3.42;2.15;;;16.20;99.90;;;;;;5035015;28;20193;-74
2022/10/02 14:01:54;;;;;;;3.22;1.80;;;16.00;99.90;;;;;;5033883;28;20266;-74
2022/10/02 14:04:49;;;;;;;3.67;2.03;;;15.90;99.90;;;;;;5034415;28;20234;-74
2022/10/02 14:07:47;;;;;;;4.47;1.77;;;15.80;99.90;;;;;;5034832;28;20163;-74
2022/10/02 14:10:19;;;;;;;3.10;1.95;;;15.70;99.90;;;;;;5033592;28;20183;-73
2022/10/02 14:13:05;;;;;;;2.53;2.00;;;15.50;99.90;;;;;;5033749;28;20301;-73
2022/10/02 14:15:53;;;;;;;2.03;1.70;;;15.40;99.90;;;;;;5033476;28;20567;-73
2022/10/02 14:18:51;;;;;;;4.35;2.13;;;15.40;99.90;;;;;;5031350;28;20268;-74
2022/10/02 14:21:33;;;;;;;4.30;2.00;;;15.40;99.90;;;;;;5047700;28;20191;-75
2022/10/02 14:24:21;;;;;;;3.83;1.92;;;15.50;99.90;;;;;;5034047;28;20190;-74
2022/10/02 14:30:20;;;;;;;3.30;1.83;;;15.50;99.90;;;;;;5034854;28;20163;-74
2022/10/02 14:33:15;;;;;;;2.80;1.90;;;15.50;99.90;;;;;;5034780;28;20163;-75
2022/10/02 14:36:43;;;;;;;3.67;1.90;;;15.40;99.90;;;;;;5033186;28;20178;-74
2022/10/02 14:39:33;;;;;;;4.50;3.97;;;15.40;99.90;;;;;;5032925;28;20661;-73
2022/10/02 14:42:20;;;;;;;8.32;3.63;;;15.30;99.90;;;;;;5033269;28;20198;-74
2022/10/02 14:44:52;;;;;;;4.55;3.90;;;15.20;99.90;;;;;;5032710;28;20260;-74
2022/10/02 14:47:33;;;;;;;3.58;3.17;;;15.20;99.90;;;;;;5032803;28;20218;-74
2022/10/02 14:53:59;;;;;;;2.80;2.60;;;15.10;99.90;;;;;;5034330;28;20190;-74
2022/10/02 14:56:58;;;;;;;5.32;2.95;;;15.10;99.90;;;;;;5032688;28;20189;-74
2022/10/02 14:59:51;;;;;;;2.80;2.22;;;15.10;99.90;;;;;;5032823;28;20210;-74
2022/10/02 15:02:43;;;;;;;3.85;2.05;;;15.20;99.90;;;;;;5033475;28;20185;-74
2022/10/02 15:05:40;;;;;;;5.05;2.33;;;15.20;99.90;;;;;;5033704;28;20201;-73
2022/10/02 15:08:43;;;;;;;3.50;2.00;;;15.20;99.90;;;;;;5032458;28;20198;-73
2022/10/02 15:11:24;;;;;;;3.05;2.22;;;15.20;99.90;;;;;;5034213;28;20197;-74
2022/10/02 15:14:00;;;;;;;4.45;2.05;;;15.10;99.90;;;;;;5032586;28;20166;-74
2022/10/02 15:20:21;;;;;;;3.33;2.20;;;15.10;99.90;;;;;;5033933;28;20225;-74
2022/10/02 15:23:01;;;;;;;3.20;2.28;;;15.00;99.90;;;;;;5032316;28;20194;-74
2022/10/02 15:25:58;;;;;;;2.30;2.10;;;14.90;99.90;;;;;;5032177;28;20199;-74
2022/10/02 15:28:45;;;;;;;4.72;2.22;;;14.70;99.90;;;;;;5032253;28;20290;-74
2022/10/02 15:32:04;;;;;;;2.75;2.10;;;14.60;99.90;;;;;;5033336;28;20257;-74
2022/10/02 15:35:07;;;;;;;2.33;2.10;;;14.40;99.90;;;;;;5033973;28;20159;-74
2022/10/02 15:37:50;;;;;;;4.03;2.35;;;14.30;99.90;;;;;;5032219;28;20186;-73
2022/10/02 15:40:22;;;;;;;3.78;2.88;;;14.20;99.90;;;;;;5031994;28;20179;-73
2022/10/02 15:42:50;;;;;;;6.93;2.72;;;14.20;99.90;;;;;;5032979;28;20261;-73
2022/10/02 15:45:46;;;;;;;4.72;2.47;;;14.20;99.90;;;;;;5033316;28;20202;-73
2022/10/02 15:48:41;;;;;;;3.90;2.40;;;14.20;99.90;;;;;;5032079;28;20265;-73
2022/10/02 15:51:26;;;;;;;5.47;2.40;;;14.10;99.90;;;;;;5033245;28;20175;-74
2022/10/02 15:54:19;;;;;;;3.90;2.45;;;14.10;99.90;;;;;;5032901;28;20220;-74
2022/10/02 15:57:02;;;;;;;5.40;2.60;;;14.10;99.90;;;;;;5033966;28;20175;-74
2022/10/02 16:00:10;;;;;;;5.50;2.85;;;14.00;99.90;;;;;;5037216;28;20670;-74
2022/10/02 16:06:29;;;;;;;3.25;2.35;;;13.90;99.90;;;;;;5037123;28;20202;-74
2022/10/02 16:09:33;;;;;;;3.63;2.72;;;13.80;99.90;;;;;;5033711;28;20238;-74
2022/10/02 16:12:15;;;;;;;5.45;2.63;;;13.70;99.90;;;;;;5051670;28;20186;-74
2022/10/02 16:15:04;;;;;;;3.35;2.90;;;13.60;99.90;;;;;;5037184;28;20262;-74
2022/10/02 16:17:49;;;;;;;5.13;3.20;;;13.40;99.90;;;;;;5035715;28;20178;-74
2022/10/02 16:20:37;;;;;;;4.72;3.30;;;13.40;99.90;;;;;;5035675;28;20182;-74
2022/10/02 16:23:48;;;;;;;4.00;3.60;;;13.30;99.90;;;;;;5036807;28;20179;-74
2022/10/02 16:26:35;;;;;;;6.40;4.00;;;13.10;99.90;;;;;;5029912;28;20313;-74
2022/10/02 16:29:19;;;;;;;7.05;4.22;;;13.00;99.90;;;;;;5036805;28;20759;-74
2022/10/02 16:36:03;;;;;;;9.00;4.85;;;13.00;99.90;;;;;;5037309;28;20297;-74
2022/10/02 16:38:50;;;;;;;7.47;6.78;;;12.90;99.90;;;;;;5041732;28;20202;-74
2022/10/02 16:44:42;;;;;;;10.52;9.27;;;12.80;99.90;;;;;;5050463;28;20210;-74
2022/10/02 16:51:04;;;;;;;7.78;6.30;;;12.70;99.90;;;;;;5036496;28;20173;-74
2022/10/02 16:54:09;;;;;;;9.90;6.22;;;12.60;99.90;;;;;;5036603;28;20167;-73
2022/10/02 16:56:50;;;;;;;7.00;5.38;;;12.60;99.90;;;;;;5035012;28;20171;-73
2022/10/02 16:59:28;;;;;;;7.63;5.57;;;12.50;99.90;;;;;;5034799;28;20201;-73
2022/10/02 17:02:21;;;;;;;6.28;4.78;;;12.50;99.90;;;;;;5036034;28;20268;-74
2022/10/02 17:08:27;;;;;;;8.95;4.70;;;12.40;99.90;;;;;;5035658;28;20325;-74
2022/10/02 17:11:13;;;;;;;5.32;4.78;;;12.30;99.90;;;;;;5034603;28;20630;-74
2022/10/02 17:17:23;;;;;;;5.95;4.75;;;12.10;99.90;;;;;;5036126;28;20159;-74
2022/10/02 17:19:59;;;;;;;5.68;5.00;;;11.90;99.90;;;;;;5033964;28;20183;-74
2022/10/02 17:22:36;;;;;;;6.28;5.65;;;11.90;99.90;;;;;;5034468;28;20209;-74
2022/10/02 17:25:20;;;;;;;6.25;5.65;;;11.70;99.90;;;;;;5034372;28;20209;-74
2022/10/02 17:31:15;;;;;;;6.68;6.07;;;11.60;99.90;;;;;;5035943;28;20204;-73
2022/10/02 17:40:53;;;;;;;7.32;5.50;;;11.30;99.90;;;;;;5035648;28;20166;-73
2022/10/02 17:43:30;;;;;;;10.20;9.15;;;11.30;99.90;;;;;;5035108;28;20213;-73
2022/10/02 17:46:26;;;;;;;9.10;8.20;;;11.20;99.90;;;;;;5034878;28;20199;-73
2022/10/02 17:56:29;;;;;;;105.28;82.57;;;11.10;99.90;;;;;;5035290;28;20656;-74
2022/10/02 17:59:40;;;;;;;57.90;45.80;;;11.00;99.90;;;;;;5034046;28;20218;-74
2022/10/02 18:02:14;;;;;;;22.92;20.35;;;10.90;99.90;;;;;;5023617;28;20556;-74
2022/10/02 18:05:21;;;;;;;29.10;20.80;;;10.90;99.90;;;;;;5033801;28;20198;-74
2022/10/02 18:08:08;;;;;;;16.40;13.45;;;10.80;99.90;;;;;;5033675;28;20190;-75
2022/10/02 18:11:01;;;;;;;28.38;21.25;;;10.90;99.90;;;;;;5033603;28;20703;-73
2022/10/02 18:17:22;;;;;;;28.15;23.25;;;10.70;99.90;;;;;;5034875;28;20247;-72
2022/10/02 18:19:55;;;;;;;30.42;22.15;;;10.60;99.90;;;;;;5032502;28;20164;-72
2022/10/02 18:22:26;;;;;;;26.08;22.13;;;10.50;99.90;;;;;;5033922;28;20171;-72
2022/10/02 18:28:33;;;;;;;26.25;18.25;;;10.40;99.90;;;;;;5034746;28;20205;-73
2022/10/02 18:34:58;;;;;;;11.75;10.48;;;10.30;99.90;;;;;;5034458;28;20226;-73
2022/10/02 18:41:06;;;;;;;16.25;13.20;;;10.10;99.90;;;;;;5034456;28;20166;-74
2022/10/02 18:43:57;;;;;;;17.33;14.88;;;10.10;99.90;;;;;;5033294;28;20256;-74
2022/10/02 18:50:03;;;;;;;29.42;18.58;;;10.00;99.90;;;;;;5034291;28;20185;-74
2022/10/02 18:53:14;;;;;;;27.02;21.75;;;9.90;99.90;;;;;;5034529;28;20240;-74
2022/10/02 18:55:56;;;;;;;22.73;15.30;;;9.90;99.90;;;;;;5033835;28;20217;-74
2022/10/02 18:59:03;;;;;;;60.47;32.00;;;9.80;99.90;;;;;;5033840;28;20202;-74
2022/10/02 19:01:56;;;;;;;152.98;68.65;;;9.70;99.90;;;;;;5033364;28;20195;-74
2022/10/02 19:04:56;;;;;;;28.35;17.90;;;9.70;99.90;;;;;;5032538;28;20256;-74
2022/10/02 19:07:34;;;;;;;28.35;22.02;;;9.70;99.90;;;;;;5032762;28;20171;-74
2022/10/02 19:10:30;;;;;;;25.85;19.48;;;9.70;99.90;;;;;;5034122;28;20213;-74
2022/10/02 19:13:13;;;;;;;22.67;19.27;;;9.70;99.90;;;;;;5032409;28;20170;-74
2022/10/02 19:15:41;;;;;;;25.80;21.60;;;9.70;99.90;;;;;;5033707;28;20167;-84
2022/10/02 19:18:25;;;;;;;28.95;21.60;;;9.70;99.90;;;;;;5032678;28;20209;-73
2022/10/02 19:21:25;;;;;;;19.45;16.80;;;9.70;99.90;;;;;;5032556;28;20179;-73
2022/10/02 19:35:16;;;;;;;13.68;12.35;;;9.40;99.90;;;;;;5110577;22;20226;-73
2022/10/02 19:37:43;;;;;;;13.75;11.30;;;9.40;99.90;;;;;;5013522;28;20591;-74
2022/10/02 19:40:18;;;;;;;14.15;9.82;;;9.30;99.90;;;;;;4995899;28;20168;-74
2022/10/02 19:42:59;;;;;;;13.50;11.25;;;9.30;99.90;;;;;;5002323;28;20158;-74
2022/10/02 19:45:29;;;;;;;12.45;9.27;;;9.20;99.90;;;;;;4995851;28;20681;-74
2022/10/02 19:48:03;;;;;;;12.07;8.65;;;9.10;99.90;;;;;;4995588;28;20175;-74
2022/10/02 19:50:37;;;;;;;9.80;8.88;;;9.10;99.90;;;;;;5013317;28;20163;-73
2022/10/02 19:53:20;;;;;;;11.57;8.70;;;9.10;99.90;;;;;;4996004;28;20185;-73
2022/10/02 19:55:56;;;;;;;14.93;9.30;;;9.10;99.90;;;;;;5002606;28;20224;-73
2022/10/02 19:58:25;;;;;;;12.90;9.73;;;9.00;99.90;;;;;;4993475;28;20259;-73
2022/10/02 20:00:56;;;;;;;11.55;8.98;;;8.80;99.90;;;;;;4996019;28;20186;-73
2022/10/02 20:03:24;;;;;;;10.52;9.27;;;8.80;99.90;;;;;;4996318;28;20559;-73
2022/10/02 20:05:57;;;;;;;12.75;9.63;;;8.80;99.90;;;;;;4996045;28;20221;-73
2022/10/02 20:08:32;;;;;;;12.85;8.43;;;8.80;99.90;;;;;;4996321;28;20204;-73
2022/10/02 20:11:07;;;;;;;10.65;8.05;;;8.70;99.90;;;;;;5013381;28;20171;-74
2022/10/02 20:13:40;;;;;;;15.85;9.68;;;8.70;99.90;;;;;;4995830;28;20191;-74
2022/10/02 20:19:05;;;;;;;11.40;8.85;;;8.60;99.90;;;;;;5013786;28;20673;-73
2022/10/02 20:21:50;;;;;;;12.80;8.95;;;8.60;99.90;;;;;;5013170;28;20202;-73
2022/10/02 20:24:40;;;;;;;9.80;7.82;;;8.60;99.90;;;;;;4995688;28;20187;-73
2022/10/02 20:27:38;;;;;;;8.52;7.30;;;8.60;99.90;;;;;;4995993;28;20168;-73
2022/10/02 20:30:10;;;;;;;9.07;7.35;;;8.60;99.90;;;;;;4995517;28;20164;-73
2022/10/02 20:32:46;;;;;;;12.45;7.72;;;8.50;99.90;;;;;;4995674;28;20222;-73
2022/10/02 20:35:34;;;;;;;9.02;7.07;;;8.50;99.90;;;;;;4995824;28;20224;-74
2022/10/02 20:41:57;;;;;;;10.35;6.75;;;8.50;99.90;;;;;;5013712;28;20167;-73
2022/10/02 20:44:37;;;;;;;9.85;6.88;;;8.30;99.90;;;;;;4995842;28;20230;-73
2022/10/02 20:47:20;;;;;;;10.70;7.18;;;8.20;99.90;;;;;;4998928;28;20168;-73
2022/10/02 20:49:51;;;;;;;8.25;6.60;;;8.20;99.90;;;;;;4999911;28;20163;-73
2022/10/02 20:52:33;;;;;;;13.50;6.65;;;8.20;99.90;;;;;;4999529;28;20571;-73
2022/10/02 20:55:31;;;;;;;9.95;7.55;;;8.20;99.90;;;;;;4998909;28;20266;-73
2022/10/02 20:58:18;;;;;;;9.57;8.57;;;8.20;99.90;;;;;;4998908;28;20171;-74
2022/10/02 21:01:06;;;;;;;9.82;7.32;;;8.30;99.90;;;;;;5010048;28;20207;-73
2022/10/02 21:04:11;;;;;;;9.57;7.45;;;8.30;99.90;;;;;;4998632;28;20238;-73
2022/10/02 21:06:55;;;;;;;7.65;6.95;;;8.20;99.90;;;;;;4998917;28;20215;-73
2022/10/02 21:10:14;;;;;;;11.18;7.30;;;8.20;99.90;;;;;;4998718;28;20172;-73
2022/10/02 21:12:40;;;;;;;8.38;7.15;;;8.10;99.90;;;;;;4998710;28;20263;-73
2022/10/02 21:15:24;;;;;;;12.35;7.75;;;8.10;99.90;;;;;;5016144;28;20270;-73
2022/10/02 21:18:29;;;;;;;13.02;7.70;;;8.10;99.90;;;;;;4998637;28;20164;-73
2022/10/02 21:25:01;;;;;;;9.98;9.00;;;8.00;99.90;;;;;;5016299;28;20275;-73
2022/10/02 21:28:18;;;;;;;12.38;8.85;;;7.90;99.90;;;;;;4999517;28;20168;-73
2022/10/02 21:31:12;;;;;;;11.98;9.60;;;8.00;99.90;;;;;;5015931;28;20156;-73
2022/10/02 21:33:59;;;;;;;11.98;8.80;;;8.00;99.90;;;;;;4998279;28;20191;-73
2022/10/02 21:36:57;;;;;;;10.52;9.00;;;8.00;99.90;;;;;;4998188;28;20201;-73
2022/10/02 21:40:08;;;;;;;10.70;8.95;;;8.00;99.90;;;;;;4999033;28;20168;-73
2022/10/02 21:42:52;;;;;;;10.57;9.57;;;8.10;99.90;;;;;;4990756;28;20235;-73
2022/10/02 21:48:59;;;;;;;11.45;10.35;;;7.90;99.90;;;;;;5015578;28;20214;-73
2022/10/02 21:51:37;;;;;;;11.90;9.52;;;7.90;99.90;;;;;;4998014;28;20180;-73
2022/10/02 21:54:44;;;;;;;10.88;9.63;;;7.90;99.90;;;;;;5015452;28;20180;-73
2022/10/02 21:57:38;;;;;;;9.82;8.57;;;7.90;99.90;;;;;;5015325;28;20164;-73
2022/10/02 22:00:30;;;;;;;10.90;9.10;;;7.90;99.90;;;;;;4998571;28;20170;-73
2022/10/02 22:03:17;;;;;;;12.10;10.25;;;7.80;99.90;;;;;;5015180;28;20191;-73
2022/10/02 22:06:20;;;;;;;10.95;9.70;;;7.80;99.90;;;;;;5015076;28;20207;-73
2022/10/02 22:09:09;;;;;;;13.30;10.15;;;7.80;99.90;;;;;;4989699;28;20187;-72
2022/10/02 22:12:06;;;;;;;11.35;9.57;;;7.80;99.90;;;;;;5015002;28;20199;-73
2022/10/02 22:15:09;;;;;;;11.80;9.40;;;7.80;99.90;;;;;;4997987;28;20171;-73
2022/10/02 22:18:29;;;;;;;10.52;9.30;;;7.80;99.90;;;;;;4997661;28;20248;-73
2022/10/02 22:21:07;;;;;;;11.65;9.18;;;7.70;99.90;;;;;;4977040;28;20173;-73
2022/10/02 22:23:45;;;;;;;12.90;11.18;;;7.70;99.90;;;;;;4997429;28;20179;-73
2022/10/02 22:26:26;;;;;;;20.25;15.45;;;7.70;99.90;;;;;;4997661;28;20215;-73
2022/10/02 22:29:00;;;;;;;22.25;14.32;;;7.60;99.90;;;;;;5014978;28;20163;-73
2022/10/02 22:31:44;;;;;;;23.58;15.60;;;7.60;99.90;;;;;;4997996;28;20167;-72
2022/10/02 22:34:23;;;;;;;19.10;14.27;;;7.70;99.90;;;;;;4996968;28;20191;-72
2022/10/02 22:37:16;;;;;;;17.20;13.30;;;7.80;99.90;;;;;;4997665;28;20171;-72
2022/10/02 22:40:11;;;;;;;17.08;13.63;;;7.80;99.90;;;;;;5014558;28;20164;-72
2022/10/02 22:43:31;;;;;;;17.08;13.23;;;7.80;99.90;;;;;;5013623;28;20191;-72
2022/10/02 22:46:04;;;;;;;15.38;12.32;;;7.80;99.90;;;;;;4997832;28;20216;-72
2022/10/02 22:48:32;;;;;;;16.38;12.10;;;7.70;99.90;;;;;;4997363;28;20266;-72
2022/10/02 22:51:19;;;;;;;16.15;11.98;;;7.70;99.90;;;;;;4997281;28;20583;-72
2022/10/02 22:53:55;;;;;;;15.95;12.43;;;7.60;99.90;;;;;;4997081;28;20634;-72
2022/10/02 22:56:29;;;;;;;16.93;13.10;;;7.60;99.90;;;;;;4996870;28;20281;-73
2022/10/02 22:59:33;;;;;;;15.65;11.23;;;7.60;99.90;;;;;;4997403;28;20267;-73
2022/10/02 23:02:08;;;;;;;14.77;10.82;;;7.60;99.90;;;;;;4996797;28;20171;-73
2022/10/02 23:04:42;;;;;;;12.48;11.20;;;7.60;99.90;;;;;;4996180;28;20721;-74
2022/10/02 23:07:15;;;;;;;14.23;10.55;;;7.60;99.90;;;;;;5014273;28;20168;-77
2022/10/02 23:10:10;;;;;;;10.48;9.40;;;7.50;99.90;;;;;;5015057;28;20565;-74
2022/10/02 23:13:05;;;;;;;11.00;8.98;;;7.50;99.90;;;;;;4997035;28;20195;-74
2022/10/02 23:15:46;;;;;;;9.80;8.80;;;7.40;99.90;;;;;;4987712;28;20212;-75
2022/10/02 23:18:27;;;;;;;10.60;8.50;;;7.30;99.90;;;;;;5013890;28;20175;-74
2022/10/02 23:21:11;;;;;;;9.40;7.50;;;7.30;99.90;;;;;;4996306;28;20180;-74
2022/10/02 23:23:49;;;;;;;12.88;8.55;;;7.30;99.90;;;;;;5014188;28;20229;-74
2022/10/02 23:26:36;;;;;;;11.15;8.43;;;7.40;99.90;;;;;;4996479;28;20215;-74
2022/10/02 23:29:34;;;;;;;9.85;8.13;;;7.50;99.90;;;;;;4997376;28;20288;-74
2022/10/02 23:33:03;;;;;;;12.93;9.05;;;7.50;99.90;;;;;;4997209;28;20183;-74
2022/10/02 23:35:37;;;;;;;12.88;8.50;;;7.40;99.90;;;;;;4954037;28;20211;-74
2022/10/02 23:38:10;;;;;;;14.50;8.85;;;7.40;99.90;;;;;;4996142;28;20233;-73
2022/10/02 23:47:28;;;;;;;10.27;7.57;;;7.10;99.90;;;;;;5013623;28;20218;-73
2022/10/02 23:49:57;;;;;;;13.00;7.63;;;7.00;99.90;;;;;;4996075;28;20171;-73
2022/10/02 23:52:49;;;;;;;11.33;8.03;;;6.90;99.90;;;;;;4996244;28;20175;-73
2022/10/02 23:56:11;;;;;;;10.60;7.63;;;6.90;99.90;;;;;;4995868;28;20294;-73
2022/10/02 23:58:54;;;;;;;9.83;7.50;;;6.90;99.90;;;;;;4975632;28;20271;-73
